createdAt,value
2017-03-14T19:34:17.337Z,28.2
2017-03-14T19:35:27.282Z,28.11
2017-03-14T19:36:37.222Z,27.91
2017-03-14T19:37:47.162Z,28.19
2017-03-14T19:38:57.101Z,28.67
2017-03-14T19:40:07.037Z,28.38
2017-03-14T19:41:16.982Z,28.29
2017-03-14T19:42:26.607Z,28.38
2017-03-14T19:43:35.907Z,28.58
2017-03-14T19:44:46.152Z,29.15
2017-03-14T19:45:56.083Z,28.96
2017-03-14T19:47:06.332Z,29.15
2017-03-14T19:48:15.956Z,29.24
2017-03-14T19:49:26.211Z,29.24
2017-03-14T19:50:36.155Z,29.43
2017-03-14T19:51:46.410Z,29.43
2017-03-14T19:52:55.731Z,29.91
2017-03-14T19:54:05.671Z,29.91
2017-03-14T19:55:15.607Z,30.1
2017-03-14T19:56:25.547Z,30.1
2017-03-14T19:57:35.798Z,30.29
2017-03-14T19:58:45.727Z,29.91
2017-03-14T19:59:55.675Z,30.19
2017-03-14T20:01:05.614Z,30
2017-03-14T20:02:15.868Z,30.1
2017-03-14T20:03:26.127Z,29.91
2017-03-14T20:04:36.059Z,30.08
2017-03-14T20:05:45.064Z,29.99
2017-03-14T20:06:55.314Z,30.19
2017-03-14T20:08:05.245Z,30.19
2017-03-14T20:09:15.513Z,30.19
2017-03-14T20:10:25.762Z,30.1
2017-03-14T20:11:35.387Z,30.1
2017-03-14T20:12:45.014Z,30.1
2017-03-14T20:13:54.647Z,30.08
2017-03-14T20:15:04.901Z,30.19
2017-03-14T20:16:14.840Z,29.91
2017-03-14T20:17:24.775Z,30.18
2017-03-14T20:18:35.027Z,29.99
2017-03-14T20:19:44.965Z,30.29
2017-03-14T20:20:55.229Z,30.38
2017-03-14T20:22:05.483Z,30.57
2017-03-14T20:23:15.415Z,30.47
2017-03-14T20:24:25.381Z,30.19
2017-03-14T20:25:35.641Z,30.29
2017-03-14T20:26:45.572Z,30
2017-03-14T20:27:55.519Z,30.66
2017-03-14T20:29:05.449Z,30.66
2017-03-14T20:30:15.382Z,30.57
2017-03-14T20:31:24.689Z,30.57
2017-03-14T20:32:34.942Z,30.57
2017-03-14T20:33:45.191Z,30.57
2017-03-14T20:34:55.125Z,30.57
2017-03-14T20:36:05.058Z,30.76
2017-03-14T20:37:14.682Z,30.57
2017-03-14T20:38:24.618Z,30.57
2017-03-14T20:39:34.867Z,30.57
2017-03-14T20:40:44.814Z,30.18
2017-03-14T20:41:54.751Z,30.38
2017-03-14T20:43:05.005Z,30.85
2017-03-14T20:44:15.252Z,30.66
2017-03-14T20:45:25.195Z,30.76
2017-03-14T20:46:35.449Z,30.47
2017-03-14T20:47:45.381Z,30.66
2017-03-14T20:48:55.682Z,30.47
2017-03-14T20:50:05.614Z,30.85
2017-03-14T20:51:15.860Z,30.76
2017-03-14T20:52:25.790Z,30.66
2017-03-14T20:53:35.405Z,30.66
2017-03-14T20:54:45.661Z,30.47
2017-03-14T20:55:55.617Z,30.57
2017-03-14T20:57:05.868Z,30.57
2017-03-14T20:58:16.118Z,30.57
2017-03-14T20:59:26.050Z,30.47
2017-03-14T21:00:35.978Z,30.85
2017-03-14T21:01:46.220Z,30.76
2017-03-14T21:02:56.150Z,30.66
2017-03-14T21:04:06.395Z,30.57
2017-03-14T21:05:16.016Z,30.66
2017-03-14T21:06:26.264Z,30.76
2017-03-14T21:07:35.574Z,30.85
2017-03-14T21:08:45.512Z,30.57
2017-03-14T21:09:55.448Z,30.85
2017-03-14T21:11:05.405Z,30.85
2017-03-14T21:12:15.331Z,30.85
2017-03-14T21:13:25.579Z,30.95
2017-03-14T21:14:35.518Z,30.85
2017-03-14T21:15:45.778Z,30.95
2017-03-14T21:16:55.402Z,30.95
2017-03-14T21:18:05.336Z,30.85
2017-03-14T21:19:15.264Z,30.95
2017-03-14T21:20:25.506Z,31.24
2017-03-14T21:21:35.433Z,31.24
2017-03-14T21:22:45.394Z,31.15
2017-03-14T21:23:55.638Z,31.43
2017-03-14T21:25:05.255Z,31.15
2017-03-14T21:26:14.878Z,31.05
2017-03-14T21:27:24.499Z,31.15
2017-03-14T21:28:34.750Z,31.24
2017-03-14T21:29:44.997Z,31.05
2017-03-14T21:30:54.630Z,31.15
2017-03-14T21:32:04.883Z,31.24
2017-03-14T21:33:14.510Z,31.34
2017-03-14T21:34:24.771Z,31.05
2017-03-14T21:35:34.082Z,30.95
2017-03-14T21:36:44.024Z,31.34
2017-03-14T21:37:53.970Z,30.95
2017-03-14T21:39:04.215Z,30.95
2017-03-14T21:40:14.176Z,30.76
2017-03-14T21:41:24.114Z,30.76
2017-03-14T21:42:34.359Z,31.24
2017-03-14T21:43:43.984Z,31.05
2017-03-14T21:44:54.228Z,31.53
2017-03-14T21:46:04.473Z,30.95
2017-03-14T21:47:14.756Z,31.43
2017-03-14T21:48:25.004Z,31.53
2017-03-14T21:49:34.633Z,31.24
2017-03-14T21:50:44.884Z,31.15
2017-03-14T21:51:55.135Z,31.53
2017-03-14T21:53:05.097Z,31.62
2017-03-14T21:54:15.035Z,31.43
2017-03-14T21:55:25.003Z,31.34
2017-03-14T21:56:34.942Z,31.53
2017-03-14T21:57:44.887Z,31.43
2017-03-14T21:58:54.828Z,31.53
2017-03-14T22:00:05.071Z,31.53
2017-03-14T22:01:15.009Z,31.34
2017-03-14T22:02:24.637Z,31.43
2017-03-14T22:03:34.890Z,31.43
2017-03-14T22:04:44.825Z,31.53
2017-03-14T22:05:55.075Z,31.72
2017-03-14T22:07:05.015Z,31.53
2017-03-14T22:08:15.261Z,31.53
2017-03-14T22:09:24.586Z,31.43
2017-03-14T22:10:34.520Z,31.62
2017-03-14T22:11:44.777Z,31.53
2017-03-14T22:12:55.027Z,31.43
2017-03-14T22:14:04.968Z,31.53
2017-03-14T22:15:15.217Z,31.53
2017-03-14T22:16:25.458Z,31.05
2017-03-14T22:17:35.703Z,31.72
2017-03-14T22:18:45.946Z,31.82
2017-03-14T22:19:55.565Z,31.82
2017-03-14T22:21:05.508Z,31.62
2017-03-14T22:22:15.455Z,31.82
2017-03-14T22:23:25.083Z,31.92
2017-03-14T22:24:35.017Z,31.43
2017-03-14T22:25:45.269Z,31.62
2017-03-14T22:26:55.526Z,31.62
2017-03-14T22:28:05.464Z,31.82
2017-03-14T22:29:15.400Z,31.62
2017-03-14T22:30:25.335Z,31.62
2017-03-14T22:31:35.583Z,31.72
2017-03-14T22:32:45.524Z,32.2
2017-03-14T22:33:55.456Z,31.92
2017-03-14T22:35:05.718Z,32.01
2017-03-14T22:36:15.649Z,32.01
2017-03-14T22:37:25.907Z,32.39
2017-03-14T22:38:36.162Z,32.49
2017-03-14T22:39:46.102Z,32.1
2017-03-14T22:40:56.038Z,32.3
2017-03-14T22:42:06.293Z,32.01
2017-03-14T22:43:16.543Z,32.01
2017-03-14T22:44:26.786Z,31.92
2017-03-14T22:45:36.725Z,32.01
2017-03-14T22:46:46.972Z,31.92
2017-03-14T22:47:57.222Z,32.39
2017-03-14T22:49:07.164Z,32.3
2017-03-14T22:50:16.784Z,32.39
2017-03-14T22:51:27.039Z,32.59
2017-03-14T22:52:36.662Z,32.39
2017-03-14T22:53:45.975Z,32.2
2017-03-14T22:54:55.593Z,32.01
2017-03-14T22:56:05.844Z,32.3
2017-03-14T22:57:15.772Z,32.39
2017-03-14T22:58:25.705Z,32.3
2017-03-14T22:59:35.957Z,32.01
2017-03-14T23:00:46.204Z,32.2
2017-03-14T23:01:56.136Z,32.39
2017-03-14T23:03:06.078Z,32.3
2017-03-14T23:04:16.328Z,32.39
2017-03-14T23:05:26.272Z,32.2
2017-03-14T23:06:35.892Z,32.59
2017-03-14T23:07:46.160Z,32.1
2017-03-14T23:08:56.413Z,32.1
2017-03-14T23:10:06.348Z,32.39
2017-03-14T23:11:16.603Z,32.49
2017-03-14T23:12:26.859Z,32.51
2017-03-14T23:13:36.793Z,32.49
2017-03-14T23:14:46.728Z,32.39
2017-03-14T23:15:56.670Z,32.49
2017-03-14T23:17:06.923Z,32.68
2017-03-14T23:18:17.163Z,32.68
2017-03-14T23:19:26.469Z,32.68
2017-03-14T23:20:36.413Z,32.68
2017-03-14T23:21:46.352Z,32.68
2017-03-14T23:22:55.972Z,32.68
2017-03-14T23:24:06.226Z,32.78
2017-03-14T23:25:16.165Z,32.68
2017-03-14T23:26:26.098Z,33.07
2017-03-14T23:27:36.355Z,33.07
2017-03-14T23:28:46.293Z,32.78
2017-03-14T23:29:56.230Z,32.97
2017-03-14T23:31:06.184Z,33.16
2017-03-14T23:32:16.433Z,33.16
2017-03-14T23:33:26.372Z,33.07
2017-03-14T23:34:36.307Z,32.68
2017-03-14T23:35:46.244Z,32.97
2017-03-14T23:36:55.872Z,33.07
2017-03-14T23:38:06.137Z,32.78
2017-03-14T23:39:16.067Z,32.97
2017-03-14T23:40:26.309Z,33.07
2017-03-14T23:41:36.559Z,33.07
2017-03-14T23:42:46.500Z,32.78
2017-03-14T23:43:56.442Z,32.78
2017-03-14T23:45:06.383Z,33.16
2017-03-14T23:46:16.320Z,32.87
2017-03-14T23:47:26.566Z,33.16
2017-03-14T23:48:36.507Z,33.36
2017-03-14T23:49:45.847Z,33.07
2017-03-14T23:50:55.780Z,33.07
2017-03-14T23:52:06.029Z,33.16
2017-03-14T23:53:15.650Z,33.26
2017-03-14T23:54:25.271Z,33.26
2017-03-14T23:55:35.521Z,32.97
2017-03-14T23:56:45.770Z,33.26
2017-03-14T23:57:55.697Z,33.36
2017-03-14T23:59:05.949Z,33.54
